createdAt,value
2023-04-25T00:03:15.899Z,96253.13
2023-04-25T00:07:16.390Z,96247.81
2023-04-25T00:11:16.567Z,96246.47
2023-04-25T00:15:17.399Z,96240.59
2023-04-25T00:19:20.128Z,96235.28
2023-04-25T00:23:21.332Z,96195.31
2023-04-25T00:27:21.464Z,96237.13
2023-04-25T00:31:22.016Z,96238.97
2023-04-25T00:35:24.785Z,96230.34
2023-04-25T00:39:24.940Z,96228.69
2023-04-25T00:43:25.474Z,96216.91
2023-04-25T00:47:26.348Z,96219.59
2023-04-25T00:51:31.676Z,96210.09
2023-04-25T00:55:32.624Z,96213.72
2023-04-25T00:59:33.586Z,96204.41
2023-04-25T01:03:37.868Z,96193.25
2023-04-25T01:07:41.857Z,96196.19
2023-04-25T01:11:42.047Z,96198.09
2023-04-25T01:15:42.310Z,96211.16
2023-04-25T01:19:43.207Z,96211.69
2023-04-25T01:23:46.984Z,96212.09
2023-04-25T01:27:48.128Z,96201.41
2023-04-25T01:31:49.629Z,96204.59
2023-04-25T01:35:49.882Z,96198.38
2023-04-25T01:39:56.477Z,96200.53
2023-04-25T01:43:56.828Z,96202.53
2023-04-25T01:48:00.550Z,96206.81
2023-04-25T01:52:00.911Z,96201.53
2023-04-25T01:56:03.633Z,96204.56
2023-04-25T02:00:11.401Z,96206.97
2023-04-25T02:04:14.346Z,96182.88
2023-04-25T02:08:15.330Z,96203.94
2023-04-25T02:12:18.376Z,96196.47
2023-04-25T02:16:33.809Z,96187.41
2023-04-25T02:20:36.026Z,96201.81
2023-04-25T02:24:36.362Z,96191.09
2023-04-25T02:28:39.566Z,96195.09
2023-04-25T02:32:40.196Z,96187.34
2023-04-25T02:36:40.757Z,96188.97
2023-04-25T02:40:41.812Z,96189.25
2023-04-25T02:44:44.572Z,96166.72
2023-04-25T02:48:44.839Z,96145.34
2023-04-25T02:52:44.978Z,96184.75
2023-04-25T02:56:49.817Z,96184.78
2023-04-25T03:00:59.070Z,96191.19
2023-04-25T03:04:59.310Z,96173.63
2023-04-25T03:09:01.113Z,96168.81
2023-04-25T03:13:01.352Z,96164.53
2023-04-25T03:17:04.254Z,96135.00
2023-04-25T03:21:04.741Z,96144.28
2023-04-25T03:25:05.364Z,96154.13
2023-04-25T03:29:05.568Z,96157.91
2023-04-25T03:33:08.505Z,96151.78
2023-04-25T03:37:09.055Z,96145.88
2023-04-25T03:41:12.289Z,96162.44
2023-04-25T03:45:16.647Z,96156.00
2023-04-25T03:49:20.660Z,96134.75
2023-04-25T03:53:31.680Z,96152.59
2023-04-25T03:57:50.488Z,96145.94
2023-04-25T04:01:51.022Z,96151.25
2023-04-25T04:05:54.443Z,96143.78
2023-04-25T04:09:54.988Z,96140.59
2023-04-25T04:14:01.448Z,96145.34
2023-04-25T04:18:03.970Z,96126.13
2023-04-25T04:22:07.954Z,96139.47
2023-04-25T04:26:09.726Z,96140.50
2023-04-25T04:30:32.155Z,96144.69
2023-04-25T04:34:35.023Z,96141.19
2023-04-25T04:38:40.072Z,96151.09
2023-04-25T04:42:43.895Z,96141.91
2023-04-25T04:47:09.541Z,96149.13
2023-04-25T04:51:30.244Z,96153.06
2023-04-25T04:55:42.296Z,96143.50
2023-04-25T05:00:04.091Z,96154.16
2023-04-25T05:04:29.659Z,96148.31
2023-04-25T05:08:51.303Z,96162.50
2023-04-25T05:13:14.066Z,96159.94
2023-04-25T05:17:23.304Z,96160.81
2023-04-25T05:21:42.165Z,96148.47
2023-04-25T05:25:50.043Z,96158.38
2023-04-25T05:30:14.638Z,96155.47
2023-04-25T05:34:31.434Z,96152.84
2023-04-25T05:38:37.721Z,96150.09
2023-04-25T05:43:00.916Z,96163.94
2023-04-25T05:47:19.780Z,96128.25
2023-04-25T05:51:40.259Z,96158.06
2023-04-25T05:56:00.980Z,96161.78
2023-04-25T06:00:02.662Z,96164.28
2023-04-25T06:04:32.178Z,96149.81
2023-04-25T06:08:32.592Z,96163.66
2023-04-25T06:12:32.951Z,96158.69
2023-04-25T06:16:33.361Z,96154.00
2023-04-25T06:20:36.572Z,96159.38
2023-04-25T06:24:37.490Z,96172.34
2023-04-25T06:28:38.381Z,96169.84
2023-04-25T06:32:38.971Z,96170.22
2023-04-25T06:36:42.639Z,96180.84
2023-04-25T06:40:46.097Z,96180.16
2023-04-25T06:44:46.310Z,96175.97
2023-04-25T06:48:47.201Z,96190.41
2023-04-25T06:52:49.919Z,96185.97
2023-04-25T06:56:51.644Z,96183.63
2023-04-25T07:00:52.024Z,96164.09
2023-04-25T07:04:56.513Z,96176.81
2023-04-25T07:08:59.405Z,96178.47
2023-04-25T07:12:59.874Z,96187.78
2023-04-25T07:17:00.703Z,96188.78
2023-04-25T07:21:03.168Z,96183.84
2023-04-25T07:25:09.753Z,96198.34
2023-04-25T07:29:10.038Z,96204.25
2023-04-25T07:33:10.245Z,96194.41
2023-04-25T07:37:10.478Z,96205.97
2023-04-25T07:41:23.664Z,96209.22
2023-04-25T07:45:24.779Z,96219.69
2023-04-25T07:49:25.968Z,96223.13
2023-04-25T07:53:26.457Z,96229.25
2023-04-25T07:57:34.689Z,96237.97
2023-04-25T08:01:36.637Z,96228.41
2023-04-25T08:05:39.586Z,96225.19
2023-04-25T08:09:40.991Z,96239.06
2023-04-25T08:13:49.956Z,96243.09
2023-04-25T08:17:50.493Z,96242.47
2023-04-25T08:21:53.021Z,96245.75
2023-04-25T08:26:00.340Z,96251.44
2023-04-25T08:30:06.730Z,96263.78
2023-04-25T08:34:07.167Z,96259.00
2023-04-25T08:38:26.486Z,96256.75
2023-04-25T08:42:31.272Z,96274.19
2023-04-25T08:46:35.935Z,96289.38
2023-04-25T08:50:55.729Z,96292.25
2023-04-25T08:54:59.191Z,96290.28
2023-04-25T08:59:02.217Z,96289.19
2023-04-25T09:03:07.113Z,96306.25
2023-04-25T09:07:07.938Z,96305.19
2023-04-25T09:11:08.442Z,96310.28
2023-04-25T09:15:12.056Z,96299.81
2023-04-25T09:19:42.056Z,96317.09
2023-04-25T09:23:56.880Z,96296.78
2023-04-25T09:27:58.219Z,96304.91
2023-04-25T09:32:20.985Z,96316.66
2023-04-25T09:36:31.799Z,96302.00
2023-04-25T09:40:53.407Z,96305.56
2023-04-25T09:45:17.374Z,96300.25
2023-04-25T09:49:19.122Z,96296.16
2023-04-25T09:53:31.409Z,96301.44
2023-04-25T09:58:09.555Z,96304.50
2023-04-25T10:02:11.946Z,96295.84
2023-04-25T10:06:18.537Z,96302.06
2023-04-25T10:10:26.907Z,96285.38
2023-04-25T10:14:28.194Z,96295.78
2023-04-25T10:18:29.706Z,96274.13
2023-04-25T10:22:36.685Z,96288.50
2023-04-25T10:26:39.602Z,96286.09
2023-04-25T10:30:39.901Z,96269.72
2023-04-25T10:34:48.348Z,96273.59
2023-04-25T10:38:51.702Z,96280.91
2023-04-25T10:42:56.268Z,96263.06
2023-04-25T10:46:58.811Z,96275.16
2023-04-25T10:51:12.338Z,96264.53
2023-04-25T10:55:13.398Z,96282.53
2023-04-25T10:59:18.218Z,96276.94
2023-04-25T11:03:21.015Z,96287.53
2023-04-25T11:07:32.732Z,96296.47
2023-04-25T11:11:34.170Z,96286.19
2023-04-25T11:15:37.092Z,96275.25
2023-04-25T11:19:37.893Z,96281.44
2023-04-25T11:23:38.866Z,96281.25
2023-04-25T11:27:43.823Z,96291.50
2023-04-25T11:31:49.160Z,96269.94
2023-04-25T11:35:49.397Z,96292.03
2023-04-25T11:39:50.513Z,96267.31
2023-04-25T11:43:53.332Z,96281.78
2023-04-25T11:47:57.010Z,96289.22
2023-04-25T11:51:57.211Z,96288.13
2023-04-25T11:55:57.362Z,96293.72
2023-04-25T11:59:57.592Z,96294.50
2023-04-25T12:04:00.720Z,96292.31
2023-04-25T12:08:01.433Z,96297.22
2023-04-25T12:12:07.006Z,96296.00
2023-04-25T12:16:07.908Z,96302.53
2023-04-25T12:20:16.391Z,96309.28
2023-04-25T12:24:20.504Z,96308.22
2023-04-25T12:28:24.968Z,96310.88
2023-04-25T12:32:26.326Z,96317.25
2023-04-25T12:36:29.313Z,96323.72
2023-04-25T12:40:29.703Z,96330.47
2023-04-25T12:44:29.970Z,96320.53
2023-04-25T12:48:30.138Z,96326.56
2023-04-25T12:52:32.839Z,96316.09
2023-04-25T12:56:33.430Z,96328.31
2023-04-25T13:00:33.710Z,96323.50
2023-04-25T13:04:34.152Z,96342.06
2023-04-25T13:08:37.904Z,96337.06
2023-04-25T13:12:38.161Z,96344.66
2023-04-25T13:16:38.468Z,96354.25
2023-04-25T13:20:38.815Z,96359.16
2023-04-25T13:24:41.837Z,96348.72
2023-04-25T13:28:43.600Z,96363.50
2023-04-25T13:32:45.080Z,96359.09
2023-04-25T13:36:45.299Z,96365.19
2023-04-25T13:40:48.011Z,96348.97
2023-04-25T13:44:48.169Z,96378.06
2023-04-25T13:48:49.841Z,96372.63
2023-04-25T13:52:50.010Z,96370.50
2023-04-25T13:56:56.473Z,96384.50
2023-04-25T14:00:56.596Z,96360.72
2023-04-25T14:04:56.947Z,96377.44
2023-04-25T14:08:57.568Z,96381.53
2023-04-25T14:13:00.327Z,96406.44
2023-04-25T14:17:00.520Z,96371.69
2023-04-25T14:21:01.212Z,96404.34
2023-04-25T14:25:02.109Z,96408.38
2023-04-25T14:29:04.897Z,96399.31
2023-04-25T14:33:05.151Z,96423.19
2023-04-25T14:37:05.427Z,96408.56
2023-04-25T14:41:05.958Z,96431.22
2023-04-25T14:45:11.937Z,96435.63
2023-04-25T14:49:12.397Z,96430.66
2023-04-25T14:53:13.817Z,96436.44
2023-04-25T14:57:14.490Z,96436.47
2023-04-25T15:01:18.301Z,96430.41
2023-04-25T15:05:18.992Z,96438.81
2023-04-25T15:09:19.574Z,96444.38
2023-04-25T15:13:21.803Z,96422.50
2023-04-25T15:17:24.573Z,96451.75
2023-04-25T15:21:24.823Z,96463.50
2023-04-25T15:25:25.094Z,96465.69
2023-04-25T15:29:25.744Z,96468.94
2023-04-25T15:33:28.584Z,96472.69
2023-04-25T15:37:28.778Z,96477.06
2023-04-25T15:41:29.045Z,96481.38
2023-04-25T15:45:29.911Z,96484.28
2023-04-25T15:49:32.818Z,96492.50
2023-04-25T15:53:33.131Z,96494.34
2023-04-25T15:57:33.908Z,96494.69
2023-04-25T16:01:35.012Z,96497.75
2023-04-25T16:05:37.791Z,96499.19
2023-04-25T16:09:39.214Z,96497.88
2023-04-25T16:13:39.564Z,96500.59
2023-04-25T16:17:40.678Z,96506.53
2023-04-25T16:21:43.486Z,96512.97
2023-04-25T16:25:44.603Z,96510.84
2023-04-25T16:29:45.218Z,96517.31
2023-04-25T16:33:48.557Z,96526.09
2023-04-25T16:37:51.676Z,96525.06
2023-04-25T16:41:52.213Z,96504.28
2023-04-25T16:45:52.372Z,96517.59
2023-04-25T16:49:53.318Z,96539.56
2023-04-25T16:53:56.357Z,96517.53
2023-04-25T16:57:56.505Z,96553.94
2023-04-25T17:01:57.002Z,96558.28
2023-04-25T17:06:01.403Z,96555.78
2023-04-25T17:10:04.221Z,96559.59
2023-04-25T17:14:04.419Z,96561.47
2023-04-25T17:18:04.618Z,96562.72
2023-04-25T17:22:04.905Z,96569.56
2023-04-25T17:26:07.700Z,96572.56
2023-04-25T17:30:10.124Z,96561.50
2023-04-25T17:34:11.891Z,96591.78
2023-04-25T17:38:12.356Z,96594.53
2023-04-25T17:42:15.575Z,96593.75
2023-04-25T17:46:15.949Z,96574.66
2023-04-25T17:50:16.959Z,96587.03
2023-04-25T17:54:18.513Z,96594.47
2023-04-25T17:58:21.731Z,96596.63
2023-04-25T18:02:22.263Z,96591.88
2023-04-25T18:06:22.697Z,96602.53
2023-04-25T18:10:23.149Z,96609.00
2023-04-25T18:14:26.051Z,96616.53
2023-04-25T18:18:33.351Z,96622.50
2023-04-25T18:22:33.839Z,96623.00
2023-04-25T18:26:34.429Z,96629.47
2023-04-25T18:30:38.162Z,96625.75
2023-04-25T18:34:41.723Z,96638.06
2023-04-25T18:38:41.922Z,96670.09
2023-04-25T18:42:42.848Z,96640.41
2023-04-25T18:46:47.459Z,96654.00
2023-04-25T18:50:47.676Z,96693.84
2023-04-25T18:54:48.305Z,96687.69
2023-04-25T18:58:48.838Z,96674.38
2023-04-25T19:07:32.603Z,96684.97
2023-04-25T19:11:32.956Z,96693.56
2023-04-25T19:15:33.662Z,96690.38
2023-04-25T19:19:34.169Z,96703.16
2023-04-25T19:23:37.572Z,96708.56
2023-04-25T19:27:37.872Z,96711.22
2023-04-25T19:31:39.787Z,96712.31
2023-04-25T19:35:40.200Z,96712.31
2023-04-25T19:39:43.542Z,96708.06
2023-04-25T19:43:43.939Z,96713.91
2023-04-25T19:47:45.224Z,96718.72
2023-04-25T19:51:46.523Z,96724.00
2023-04-25T19:55:49.496Z,96730.88
2023-04-25T19:59:49.922Z,96738.84
2023-04-25T20:03:52.045Z,96734.59
2023-04-25T20:07:53.116Z,96751.22
2023-04-25T20:11:56.439Z,96749.63
2023-04-25T20:15:56.639Z,96748.28
2023-04-25T20:19:56.814Z,96745.91
2023-04-25T20:23:58.188Z,96744.28
2023-04-25T20:28:01.334Z,96754.38
2023-04-25T20:32:03.558Z,96759.19
2023-04-25T20:36:04.278Z,96754.41
2023-04-25T20:40:06.725Z,96765.66
2023-04-25T20:44:09.951Z,96774.47
2023-04-25T20:48:10.923Z,96769.91
2023-04-25T20:52:11.242Z,96767.25
2023-04-25T20:56:13.041Z,96764.31
2023-04-25T21:00:26.834Z,96762.31
2023-04-25T21:04:27.320Z,96758.03
2023-04-25T21:08:27.794Z,96775.66
2023-04-25T21:12:28.097Z,96767.97
2023-04-25T21:16:34.878Z,96764.19
2023-04-25T21:20:36.207Z,96779.09
2023-04-25T21:24:36.446Z,96779.59
2023-04-25T21:28:36.797Z,96779.75
2023-04-25T21:32:40.567Z,96786.97
2023-04-25T21:36:41.478Z,96792.44
2023-04-25T21:40:44.474Z,96798.03
2023-04-25T21:44:44.791Z,96792.38
2023-04-25T21:48:48.148Z,96796.50
2023-04-25T21:52:48.631Z,96804.31
2023-04-25T21:56:48.866Z,96802.16
2023-04-25T22:00:49.345Z,96780.72
2023-04-25T22:04:52.682Z,96809.66
2023-04-25T22:08:53.333Z,96815.06
2023-04-25T22:12:54.270Z,96816.09
2023-04-25T22:16:54.636Z,96796.00
2023-04-25T22:20:57.531Z,96814.94
2023-04-25T22:24:57.729Z,96812.44
2023-04-25T22:28:57.901Z,96808.28
2023-04-25T22:32:58.249Z,96811.13
2023-04-25T22:37:01.215Z,96820.66
2023-04-25T22:41:01.684Z,96823.09
2023-04-25T22:45:03.211Z,96824.84
2023-04-25T22:49:03.405Z,96826.72
2023-04-25T22:53:06.991Z,96822.88
2023-04-25T22:57:10.190Z,96824.28
2023-04-25T23:01:11.718Z,96822.97
2023-04-25T23:05:13.303Z,96814.19
2023-04-25T23:09:16.120Z,96831.47
2023-04-25T23:13:16.874Z,96800.31
2023-04-25T23:17:17.218Z,96824.63
2023-04-25T23:21:17.467Z,96821.47
2023-04-25T23:25:20.782Z,96821.41
2023-04-25T23:29:21.174Z,96833.75
2023-04-25T23:33:21.395Z,96831.00
2023-04-25T23:37:21.651Z,96834.56
2023-04-25T23:41:25.489Z,96830.41
2023-04-25T23:45:25.671Z,96837.34
2023-04-25T23:49:26.042Z,96840.22
2023-04-25T23:53:26.388Z,96844.88
2023-04-25T23:57:29.599Z,96835.31
